Time;durP1;ratioP1;P1;durP2;ratioP2;P2;SDS_P1;SDS_P2;PMS_P1;PMS_P2;Temp;Humidity;BMP_temperature;BMP_pressure;BME280_temperature;BME280_humidity;BME280_pressure;Samples;Min_cycle;Max_cycle;Signal;HPM_P1;HPM_P2
2024/04/15 00:02:05;;;;;;;8.68;1.90;;;10.30;1.00;;;;;;5183267;27;40568;-81
2024/04/15 00:04:33;;;;;;;6.75;2.08;;;10.40;1.00;;;;;;5131873;27;50289;-80
2024/04/15 00:07:17;;;;;;;11.32;2.80;;;10.30;1.00;;;;;;5157942;27;38482;-80
2024/04/15 00:09:45;;;;;;;12.43;2.95;;;10.40;1.00;;;;;;5137647;27;37102;-81
2024/04/15 00:12:20;;;;;;;8.75;2.30;;;10.30;1.00;;;;;;5127901;27;40022;-80
2024/04/15 00:14:55;;;;;;;9.85;2.58;;;10.30;1.00;;;;;;5167686;27;38733;-80
2024/04/15 00:17:21;;;;;;;14.57;2.70;;;10.30;1.00;;;;;;5157556;27;39309;-79
2024/04/15 00:20:06;;;;;;;;;;;;;;;;;;;;;
2024/04/15 00:23:10;;;;;;;18.52;3.63;;;10.30;1.00;;;;;;5184313;27;48077;-81
2024/04/15 00:26:04;;;;;;;10.75;2.42;;;10.20;1.00;;;;;;5168110;27;49731;-81
2024/04/15 00:29:13;;;;;;;11.48;2.42;;;10.20;1.00;;;;;;5198038;27;49123;-80
2024/04/15 00:32:00;;;;;;;13.85;2.40;;;10.30;1.00;;;;;;5161775;27;50077;-81
2024/04/15 00:38:01;;;;;;;11.52;3.10;;;10.20;1.00;;;;;;5185052;27;50736;-82
2024/04/15 00:40:53;;;;;;;11.82;2.38;;;10.30;1.00;;;;;;5128106;27;39562;-80
2024/04/15 00:43:41;;;;;;;12.67;3.10;;;10.30;1.00;;;;;;5140675;27;37858;-81
2024/04/15 00:46:39;;;;;;;8.68;2.20;;;10.30;1.00;;;;;;5205478;27;39800;-79
2024/04/15 00:49:20;;;;;;;17.90;2.47;;;10.30;1.00;;;;;;5168890;27;38813;-80
2024/04/15 00:51:51;;;;;;;12.75;2.22;;;10.30;1.00;;;;;;5127677;27;38598;-79
2024/04/15 00:54:23;;;;;;;14.30;2.78;;;10.30;1.00;;;;;;5101561;27;36439;-80
2024/04/15 00:57:02;;;;;;;13.40;2.80;;;10.30;1.00;;;;;;5195988;27;40062;-80
2024/04/15 00:59:45;;;;;;;12.07;3.17;;;10.30;1.00;;;;;;5189926;27;49219;-81
2024/04/15 01:04:49;;;;;;;15.70;3.67;;;10.40;1.00;;;;;;4562478;25;20026;-80
2024/04/15 01:07:18;;;;;;;14.88;3.13;;;10.30;1.00;;;;;;5140336;27;39903;-79
2024/04/15 01:09:54;;;;;;;12.07;2.90;;;10.30;1.00;;;;;;5155569;27;37505;-79
2024/04/15 01:12:20;;;;;;;19.38;2.60;;;10.30;1.00;;;;;;5130808;27;38544;-80
2024/04/15 01:14:47;;;;;;;11.48;3.03;;;10.30;1.00;;;;;;5132648;27;36213;-79
2024/04/15 01:17:28;;;;;;;11.98;2.30;;;10.40;1.00;;;;;;5134918;27;39192;-79
2024/04/15 01:19:59;;;;;;;13.57;2.97;;;10.30;1.00;;;;;;5154728;27;37287;-79
2024/04/15 01:23:05;;;;;;;12.70;2.80;;;10.30;1.00;;;;;;5098997;27;39366;-81
2024/04/15 01:25:35;;;;;;;15.10;3.13;;;10.20;1.00;;;;;;5099926;28;50741;-80
2024/04/15 01:28:19;;;;;;;16.33;2.70;;;10.20;1.00;;;;;;5149158;27;37877;-81
2024/04/15 01:31:03;;;;;;;14.57;2.60;;;10.20;1.00;;;;;;5142285;27;48226;-79
2024/04/15 01:33:33;;;;;;;12.00;2.45;;;10.20;1.00;;;;;;5097756;27;48790;-79
2024/04/15 01:36:07;;;;;;;12.27;2.70;;;10.20;1.00;;;;;;5157049;27;37678;-79
2024/04/15 01:38:34;;;;;;;11.95;2.80;;;10.20;1.00;;;;;;5152217;27;46541;-80
2024/04/15 01:41:03;;;;;;;12.38;3.63;;;10.20;1.00;;;;;;5159228;27;37282;-81
2024/04/15 01:43:31;;;;;;;8.88;2.25;;;10.10;1.00;;;;;;5125217;27;49307;-81
2024/04/15 01:45:58;;;;;;;11.82;3.40;;;10.20;1.00;;;;;;5134488;27;36286;-80
2024/04/15 01:48:37;;;;;;;13.77;2.87;;;10.20;1.00;;;;;;5132797;27;39077;-81
2024/04/15 01:51:06;;;;;;;23.27;3.40;;;10.20;1.00;;;;;;5149779;27;38068;-80
2024/04/15 01:53:46;;;;;;;15.63;3.55;;;10.20;1.00;;;;;;5131191;27;38615;-80
2024/04/15 01:56:24;;;;;;;16.20;3.93;;;10.20;1.00;;;;;;5121605;27;38011;-80
2024/04/15 01:59:05;;;;;;;16.77;3.20;;;10.20;1.00;;;;;;5159527;27;38717;-80
2024/04/15 02:01:42;;;;;;;17.92;3.00;;;10.20;1.00;;;;;;5130108;27;48142;-81
2024/04/15 02:04:09;;;;;;;16.87;3.30;;;10.20;1.00;;;;;;5099572;27;37565;-80
2024/04/15 02:06:37;;;;;;;15.27;3.10;;;10.20;1.00;;;;;;5124425;27;36581;-79
2024/04/15 02:09:15;;;;;;;14.68;3.00;;;10.30;1.00;;;;;;5121422;27;39262;-79
2024/04/15 02:12:01;;;;;;;14.18;3.03;;;10.30;1.00;;;;;;5153431;27;38027;-80
2024/04/15 02:14:31;;;;;;;13.52;3.35;;;10.30;1.00;;;;;;5139291;27;51214;-80
2024/04/15 02:17:03;;;;;;;15.23;3.38;;;10.40;1.00;;;;;;5129020;27;36552;-79
2024/04/15 02:19:36;;;;;;;14.52;3.40;;;10.40;1.00;;;;;;5119178;27;48177;-80
2024/04/15 02:22:13;;;;;;;18.42;3.60;;;10.40;1.00;;;;;;5146870;27;38861;-81
2024/04/15 02:24:44;;;;;;;14.82;2.85;;;10.40;1.00;;;;;;5122756;27;37859;-80
2024/04/15 02:27:16;;;;;;;14.40;3.00;;;10.40;1.00;;;;;;5140654;27;37185;-82
2024/04/15 02:29:44;;;;;;;;;;;10.40;1.00;;;;;;5135038;28;39168;-81
2024/04/15 02:32:22;;;;;;;11.85;3.00;;;10.40;1.00;;;;;;5160550;27;37393;-80
2024/04/15 02:34:51;;;;;;;17.92;3.30;;;10.30;1.00;;;;;;5139495;27;37508;-79
2024/04/15 02:37:26;;;;;;;12.63;3.20;;;10.30;1.00;;;;;;5121655;27;36284;-80
2024/04/15 02:39:54;;;;;;;17.55;3.72;;;10.30;1.00;;;;;;5156555;27;38432;-79
2024/04/15 02:42:21;;;;;;;14.88;3.67;;;10.30;1.00;;;;;;5151646;27;37030;-80
2024/04/15 02:45:21;;;;;;;14.93;3.58;;;10.20;2.70;;;;;;5113639;27;37730;-80
2024/04/15 02:47:59;;;;;;;13.65;3.55;;;10.30;5.40;;;;;;5154849;27;47580;-81
2024/04/15 02:50:39;;;;;;;17.42;3.25;;;10.40;5.20;;;;;;5150959;27;37442;-79
2024/04/15 02:53:34;;;;;;;15.20;3.38;;;10.40;3.00;;;;;;5117593;27;40439;-79
2024/04/15 02:56:04;;;;;;;21.35;3.20;;;10.40;1.00;;;;;;5155543;27;37856;-79
2024/04/15 02:58:38;;;;;;;10.43;2.88;;;10.30;3.60;;;;;;5151269;27;47794;-79
2024/04/15 03:01:23;;;;;;;14.77;3.28;;;10.40;3.30;;;;;;5137398;27;36133;-81
2024/04/15 03:03:56;;;;;;;12.38;3.38;;;10.40;4.80;;;;;;5130949;27;37235;-79
2024/04/15 03:07:03;;;;;;;16.17;3.25;;;10.40;5.60;;;;;;5125094;27;38117;-79
2024/04/15 03:09:32;;;;;;;12.90;3.55;;;10.50;5.50;;;;;;5142597;27;47420;-79
2024/04/15 03:12:20;;;;;;;20.77;3.55;;;10.50;6.50;;;;;;5101524;27;38686;-80
2024/04/15 03:15:00;;;;;;;18.83;3.60;;;10.50;4.90;;;;;;5123692;27;48691;-81
2024/04/15 03:22:41;;;;;;;17.90;3.50;;;10.50;2.40;;;;;;5673296;22;20034;-80
2024/04/15 03:25:43;;;;;;;16.20;3.35;;;10.50;2.30;;;;;;5110991;27;38303;-80
2024/04/15 03:28:14;;;;;;;11.68;3.08;;;10.40;2.20;;;;;;5139896;27;41651;-79
2024/04/15 03:30:45;;;;;;;17.98;3.40;;;10.50;5.20;;;;;;5114976;27;36863;-79
2024/04/15 03:33:16;;;;;;;13.50;3.45;;;10.50;5.80;;;;;;5162301;27;38131;-80
2024/04/15 03:35:46;;;;;;;13.70;3.75;;;10.50;4.00;;;;;;5172721;27;37519;-79
2024/04/15 03:38:13;;;;;;;14.35;4.28;;;10.50;1.00;;;;;;5131729;27;38460;-80
2024/04/15 03:41:03;;;;;;;15.30;3.42;;;10.50;1.00;;;;;;5141889;27;39298;-79
2024/04/15 03:43:52;;;;;;;15.93;3.45;;;10.50;2.10;;;;;;5133091;27;48793;-78
2024/04/15 03:46:43;;;;;;;17.85;4.00;;;10.50;1.00;;;;;;5146690;27;37306;-81
2024/04/15 03:49:21;;;;;;;24.63;4.38;;;10.50;1.00;;;;;;5140493;27;37081;-79
2024/04/15 03:52:07;;;;;;;16.88;2.95;;;10.50;1.00;;;;;;5125249;27;37505;-80
2024/04/15 03:55:09;;;;;;;12.35;3.03;;;10.50;1.00;;;;;;5155447;27;47874;-79
2024/04/15 03:58:02;;;;;;;11.02;2.80;;;10.50;1.00;;;;;;5125901;27;48048;-80
2024/04/15 04:00:57;;;;;;;19.90;4.05;;;10.50;1.00;;;;;;5126638;27;47742;-80
2024/04/15 04:04:20;;;;;;;13.60;3.38;;;10.50;1.00;;;;;;5130462;27;36155;-81
2024/04/15 04:06:49;;;;;;;12.52;3.08;;;10.40;1.00;;;;;;5075361;27;49272;-79
2024/04/15 04:09:16;;;;;;;14.32;2.90;;;10.30;1.00;;;;;;5154615;27;38812;-80
2024/04/15 04:11:54;;;;;;;17.00;3.08;;;10.30;1.00;;;;;;5134501;27;37174;-80
2024/04/15 04:14:39;;;;;;;17.23;3.63;;;10.30;1.00;;;;;;5126376;27;37643;-79
2024/04/15 04:17:18;;;;;;;16.30;3.05;;;10.20;1.00;;;;;;5145584;27;40076;-78
2024/04/15 04:19:49;;;;;;;17.75;2.85;;;10.10;1.00;;;;;;5131130;27;38960;-79
2024/04/15 04:22:37;;;;;;;15.90;3.33;;;10.00;1.00;;;;;;5129909;27;37013;-80
2024/04/15 04:25:38;;;;;;;13.70;3.33;;;10.00;1.00;;;;;;5151579;27;36892;-80
2024/04/15 04:28:05;;;;;;;18.10;2.90;;;9.90;1.00;;;;;;5123678;27;47542;-79
2024/04/15 04:30:34;;;;;;;17.63;3.80;;;9.80;1.00;;;;;;5142285;27;38729;-78
2024/04/15 04:33:03;;;;;;;9.60;3.03;;;9.80;1.00;;;;;;5133145;27;37381;-78
2024/04/15 04:35:41;;;;;;;17.17;2.90;;;9.80;1.00;;;;;;5132180;27;48453;-79
2024/04/15 04:38:41;;;;;;;22.10;3.17;;;9.70;1.00;;;;;;5130975;27;38983;-80
2024/04/15 04:41:31;;;;;;;15.13;2.77;;;9.70;1.00;;;;;;5138798;27;38482;-79
2024/04/15 04:44:10;;;;;;;10.60;2.30;;;9.70;1.00;;;;;;5133612;27;38375;-80
2024/04/15 04:46:48;;;;;;;10.00;2.33;;;9.60;1.00;;;;;;5099159;28;49462;-79
2024/04/15 04:49:16;;;;;;;12.20;2.43;;;9.60;1.00;;;;;;5145669;27;37991;-79
2024/04/15 04:51:59;;;;;;;8.63;1.87;;;9.60;1.00;;;;;;5121650;27;38455;-79
2024/04/15 04:54:34;;;;;;;5.15;1.80;;;9.50;1.00;;;;;;5138276;27;38082;-80
2024/04/15 04:57:14;;;;;;;9.33;2.70;;;9.50;1.00;;;;;;5138002;27;38659;-80
2024/04/15 05:00:10;;;;;;;5.73;1.37;;;9.50;1.00;;;;;;5107111;27;48697;-78
2024/04/15 05:02:47;;;;;;;6.77;1.30;;;9.40;1.00;;;;;;5162795;27;38299;-80
2024/04/15 05:05:25;;;;;;;11.23;1.60;;;9.40;1.00;;;;;;5143875;27;39095;-80
2024/04/15 05:11:35;;;;;;;12.60;1.70;;;9.40;1.00;;;;;;5067424;27;50380;-80
2024/04/15 05:14:06;;;;;;;14.60;2.27;;;9.40;1.00;;;;;;5109276;28;38114;-79
2024/04/15 05:17:26;;;;;;;7.93;2.00;;;9.30;1.00;;;;;;5097410;27;47656;-80
2024/04/15 05:26:24;;;;;;;;;;;9.50;1.00;;;;;;5262420;22;20012;-78
2024/04/15 05:28:51;;;;;;;13.73;2.33;;;9.50;1.00;;;;;;5172101;27;38485;-78
2024/04/15 05:31:20;;;;;;;12.97;2.50;;;9.50;1.00;;;;;;5169519;27;35696;-78
2024/04/15 05:33:48;;;;;;;12.73;2.43;;;9.40;1.00;;;;;;5171222;27;37514;-79
2024/04/15 06:15:53;;;;;;;14.67;2.10;;;9.70;1.00;;;;;;5244733;22;20032;-81
2024/04/15 06:31:16;;;;;;;7.25;2.28;;;10.30;1.00;;;;;;5507654;22;20037;31
2024/04/15 06:33:50;;;;;;;14.40;3.63;;;10.30;1.00;;;;;;5100309;27;39127;-80
2024/04/15 08:04:08;;;;;;;10.88;1.98;;;10.90;1.00;;;;;;6225659;22;20046;31
2024/04/15 09:14:41;;;;;;;8.15;1.88;;;11.80;1.00;;;;;;5202411;22;20053;-80
2024/04/15 10:46:17;;;;;;;11.73;2.60;;;10.40;99.90;;;;;;6186364;22;20305;-80
2024/04/15 10:48:54;;;;;;;11.93;2.10;;;10.40;99.90;;;;;;5136589;27;40023;-79
2024/04/15 10:57:23;;;;;;;9.73;1.83;;;10.40;48.90;;;;;;5502298;22;20053;-80
2024/04/15 11:00:42;;;;;;;15.23;2.70;;;10.40;54.40;;;;;;5177001;27;39306;-81
2024/04/15 11:14:50;;;;;;;;;;;;;;;;;;;;;
2024/04/15 11:26:27;;;;;;;4.10;1.10;;;11.10;6.10;;;;;;5782649;22;20048;-80
2024/04/15 12:04:17;;;;;;;11.43;2.33;;;9.90;99.90;;;;;;5725196;22;20032;-79
2024/04/15 12:06:54;;;;;;;6.00;1.17;;;9.90;99.90;;;;;;5103297;27;39021;-80
2024/04/15 12:09:25;;;;;;;5.20;1.10;;;8.30;37.10;;;;;;5201980;27;39944;-79
2024/04/15 12:11:51;;;;;;;6.20;1.30;;;7.40;71.60;;;;;;5183970;27;37022;-79
2024/04/15 12:14:19;;;;;;;7.90;1.37;;;7.00;96.50;;;;;;5187588;27;36234;-78
2024/04/15 12:16:47;;;;;;;7.43;1.80;;;6.80;99.90;;;;;;5196094;27;39634;-79
2024/04/15 12:19:23;;;;;;;9.67;2.30;;;6.70;99.90;;;;;;5170353;27;37371;-81
2024/04/15 12:21:53;;;;;;;6.50;0.80;;;6.70;99.90;;;;;;5177838;27;39520;-80
2024/04/15 12:24:19;;;;;;;16.10;2.27;;;6.60;99.90;;;;;;5180138;27;36693;-79
2024/04/15 12:26:49;;;;;;;9.43;1.27;;;6.50;99.90;;;;;;5180423;27;38400;-79
2024/04/15 12:29:18;;;;;;;9.17;1.73;;;6.60;99.90;;;;;;5150203;27;38850;-78
2024/04/15 12:31:45;;;;;;;11.00;1.83;;;6.60;99.90;;;;;;5194865;27;38052;-74
2024/04/15 12:34:11;;;;;;;11.90;1.20;;;6.60;99.90;;;;;;5176728;27;38753;-77
2024/04/15 12:36:39;;;;;;;12.77;1.70;;;6.50;99.90;;;;;;5174758;27;20604;-77
2024/04/15 12:39:06;;;;;;;10.90;1.80;;;6.60;99.90;;;;;;5171263;27;36846;-77
2024/04/15 12:41:33;;;;;;;7.67;1.50;;;6.60;99.90;;;;;;5179782;27;38070;-77
2024/04/15 12:43:59;;;;;;;10.60;2.30;;;6.60;99.90;;;;;;5178302;27;37170;-77
2024/04/15 12:46:25;;;;;;;6.60;1.30;;;6.70;99.90;;;;;;5182254;27;39825;-77
2024/04/15 12:48:51;;;;;;;11.03;1.77;;;6.70;99.90;;;;;;5170194;27;36692;-76
2024/04/15 12:51:18;;;;;;;7.90;1.33;;;6.80;99.90;;;;;;5175549;27;40594;-76
2024/04/15 12:53:44;;;;;;;10.43;1.60;;;6.90;99.90;;;;;;5168799;27;35405;-77
2024/04/15 12:56:13;;;;;;;7.13;1.37;;;6.90;99.90;;;;;;5166670;27;39982;-76
2024/04/15 12:58:40;;;;;;;11.63;1.50;;;7.00;99.90;;;;;;5177508;27;37150;-76
2024/04/15 13:01:09;;;;;;;12.37;1.40;;;7.10;99.90;;;;;;5176601;27;39018;-76
2024/04/15 13:03:35;;;;;;;11.10;1.77;;;7.30;99.90;;;;;;5180438;27;37691;-76
2024/04/15 13:06:01;;;;;;;16.57;2.20;;;7.40;99.90;;;;;;5176132;27;38749;-76
2024/04/15 13:08:31;;;;;;;16.77;1.93;;;7.60;99.90;;;;;;5175058;27;37978;-77
2024/04/15 13:10:57;;;;;;;16.10;1.67;;;7.70;99.90;;;;;;5172302;27;37853;-77
2024/04/15 13:13:28;;;;;;;13.23;1.87;;;7.60;99.90;;;;;;5166508;27;35720;-77
2024/04/15 13:15:54;;;;;;;12.30;1.70;;;7.70;99.90;;;;;;5175046;27;39143;-77
2024/04/15 13:18:20;;;;;;;9.80;1.43;;;7.90;99.90;;;;;;5176449;27;37299;-77
2024/04/15 13:20:47;;;;;;;7.07;1.33;;;7.90;99.90;;;;;;5177577;27;37913;-77
2024/04/15 13:23:15;;;;;;;4.57;1.00;;;7.80;99.90;;;;;;5178561;27;38596;-79
2024/04/15 13:25:44;;;;;;;4.93;0.67;;;7.30;99.90;;;;;;5183637;27;37778;-80
2024/04/15 13:28:16;;;;;;;6.00;1.20;;;6.90;99.90;;;;;;5194726;27;37809;-79
2024/04/15 13:30:43;;;;;;;3.45;0.98;;;6.60;99.90;;;;;;5193992;27;38940;-79
2024/04/15 13:41:00;;;;;;;10.20;1.60;;;7.00;99.90;;;;;;5585605;22;20045;-79
2024/04/15 13:44:23;;;;;;;8.57;1.53;;;7.30;99.90;;;;;;5117777;27;36796;-79
2024/04/15 13:47:14;;;;;;;9.20;1.90;;;7.70;99.90;;;;;;5084683;28;48219;-79
2024/04/15 13:53:56;;;;;;;10.57;1.30;;;8.40;99.90;;;;;;4993632;28;49849;-80
2024/04/15 13:56:35;;;;;;;8.43;1.50;;;8.50;99.90;;;;;;5038228;28;37671;-80
2024/04/15 13:59:27;;;;;;;15.27;1.63;;;8.40;99.90;;;;;;5056849;28;39200;-80
2024/04/15 14:02:24;;;;;;;12.10;1.70;;;8.30;94.10;;;;;;5128179;27;49193;-80
2024/04/15 14:05:02;;;;;;;14.97;1.80;;;8.50;86.30;;;;;;5110843;27;48249;-79
2024/04/15 14:07:43;;;;;;;11.77;1.00;;;8.50;30.20;;;;;;5138456;27;36412;-80
2024/04/15 14:10:30;;;;;;;6.70;1.33;;;8.50;4.00;;;;;;5159362;27;39614;-79
2024/04/15 14:12:59;;;;;;;8.17;1.43;;;8.50;1.00;;;;;;5157404;27;38312;-79
2024/04/15 14:15:29;;;;;;;10.97;1.40;;;8.70;7.80;;;;;;5154208;27;39418;-79
2024/04/15 14:18:09;;;;;;;7.07;1.30;;;8.90;10.50;;;;;;5153836;27;37234;-79
2024/04/15 14:20:39;;;;;;;8.60;1.60;;;9.10;1.00;;;;;;5158692;27;47838;-79
2024/04/15 14:23:32;;;;;;;;;;;;;;;;;;;;;
2024/04/15 14:26:18;;;;;;;8.95;2.03;;;9.00;1.00;;;;;;5165177;27;37530;-78
2024/04/15 14:28:45;;;;;;;6.60;1.60;;;9.10;1.00;;;;;;5154092;27;48184;-78
2024/04/15 14:31:11;;;;;;;11.57;1.70;;;9.10;1.00;;;;;;5169416;27;39346;-79
2024/04/15 14:33:37;;;;;;;8.27;1.60;;;9.10;1.00;;;;;;5175812;27;37585;-78
2024/04/15 14:36:07;;;;;;;9.37;1.30;;;9.10;1.00;;;;;;5157606;27;37426;-79
2024/04/15 14:38:34;;;;;;;8.57;1.47;;;9.20;1.00;;;;;;5153175;27;36001;-78
2024/04/15 14:41:00;;;;;;;6.07;1.00;;;9.30;1.00;;;;;;5157568;27;39006;-74
2024/04/15 14:43:26;;;;;;;9.10;1.07;;;9.30;1.00;;;;;;5159825;27;37034;-80
2024/04/15 14:46:14;;;;;;;11.38;2.55;;;9.50;1.00;;;;;;5163550;27;37227;-79
2024/04/15 14:48:41;;;;;;;13.50;1.50;;;9.80;1.00;;;;;;5166096;27;48264;-79
2024/04/15 14:51:07;;;;;;;12.57;2.63;;;10.00;1.00;;;;;;5186041;27;40042;-79
2024/04/15 14:54:01;;;;;;;11.10;1.90;;;9.90;1.00;;;;;;5159620;27;37619;-80
2024/04/15 14:57:03;;;;;;;12.88;2.05;;;9.90;1.00;;;;;;5129797;27;50263;-81
2024/04/15 14:59:49;;;;;;;7.97;1.47;;;9.90;1.00;;;;;;5153790;27;49073;-80
2024/04/15 15:02:47;;;;;;;11.20;2.10;;;9.90;1.00;;;;;;5191330;27;38127;-79
2024/04/15 15:05:35;;;;;;;6.10;1.23;;;10.10;1.00;;;;;;5126042;27;37767;-80
2024/04/15 15:08:11;;;;;;;8.70;1.80;;;10.10;1.00;;;;;;5146437;27;39360;-80
2024/04/15 15:11:02;;;;;;;11.60;1.80;;;10.10;99.90;;;;;;5073079;27;49049;-81
2024/04/15 15:13:53;;;;;;;10.35;1.67;;;10.30;99.90;;;;;;5114563;27;49190;-80
2024/04/15 15:16:19;;;;;;;14.80;2.30;;;10.30;1.00;;;;;;5154773;27;39355;-76
2024/04/15 15:18:49;;;;;;;11.00;1.50;;;10.50;1.00;;;;;;5145151;27;36950;-80
2024/04/15 15:26:46;;;;;;;11.90;2.20;;;10.60;99.90;;;;;;5419564;22;20007;-81
2024/04/15 15:29:22;;;;;;;8.38;1.52;;;10.60;1.00;;;;;;5200716;27;38456;-80
2024/04/15 15:31:55;;;;;;;5.72;1.60;;;10.40;1.00;;;;;;5200879;27;38809;-81
2024/04/15 15:34:22;;;;;;;8.65;2.03;;;10.30;1.00;;;;;;5192001;27;40219;-80
2024/04/15 15:36:54;;;;;;;7.68;1.45;;;10.30;1.00;;;;;;5212737;27;41645;-79
2024/04/15 15:39:20;;;;;;;9.77;1.40;;;10.40;1.00;;;;;;5173543;27;36707;-80
2024/04/15 15:41:49;;;;;;;6.25;1.48;;;10.50;1.00;;;;;;5188668;27;38358;-82
2024/04/15 15:44:16;;;;;;;6.97;1.75;;;10.70;1.00;;;;;;5180003;27;39032;-79
2024/04/15 15:46:43;;;;;;;6.65;1.88;;;10.70;1.00;;;;;;5182221;27;39040;-77
2024/04/15 15:49:09;;;;;;;8.10;1.48;;;10.90;90.80;;;;;;5173271;27;36652;-79
2024/04/15 15:51:39;;;;;;;8.00;1.58;;;10.60;1.00;;;;;;5181213;27;37640;-79
2024/04/15 15:54:06;;;;;;;14.18;1.95;;;10.50;1.00;;;;;;5185904;27;39820;-79
2024/04/15 15:56:33;;;;;;;9.20;1.27;;;10.60;1.00;;;;;;5193495;27;39388;-80
2024/04/15 15:59:00;;;;;;;6.53;1.65;;;10.60;1.00;;;;;;5164050;27;37498;-79
2024/04/15 16:01:31;;;;;;;7.63;1.40;;;10.80;1.00;;;;;;5175265;27;37035;-79
2024/04/15 16:03:59;;;;;;;8.00;1.40;;;10.90;99.90;;;;;;5192564;27;37808;-80
2024/04/15 16:06:35;;;;;;;5.90;1.58;;;10.70;1.00;;;;;;5185824;27;36026;-81
2024/04/15 16:09:04;;;;;;;11.80;1.80;;;10.30;38.70;;;;;;5191066;27;37886;-80
2024/04/15 16:11:30;;;;;;;10.43;1.40;;;10.00;1.00;;;;;;5193909;27;36904;-80
2024/04/15 16:13:58;;;;;;;10.13;1.88;;;9.90;1.00;;;;;;5187852;27;39018;-80
2024/04/15 16:16:25;;;;;;;10.82;1.77;;;9.70;99.90;;;;;;5197090;27;38962;-80
2024/04/15 16:18:51;;;;;;;8.05;1.20;;;9.60;1.00;;;;;;5195314;27;37488;-79
2024/04/15 16:21:19;;;;;;;8.45;1.75;;;9.60;1.00;;;;;;5180235;27;37259;-79
2024/04/15 16:23:45;;;;;;;12.30;1.65;;;9.50;1.00;;;;;;5162451;27;38692;-79
2024/04/15 16:26:14;;;;;;;9.27;1.77;;;9.50;1.00;;;;;;5195523;27;38507;-79
2024/04/15 16:28:45;;;;;;;8.23;1.58;;;9.60;1.00;;;;;;5187075;27;38772;-80
2024/04/15 16:31:36;;;;;;;;;;;;;;;;;;;;;
2024/04/15 16:34:14;;;;;;;6.80;1.40;;;9.60;99.90;;;;;;5155343;27;38726;-79
2024/04/15 16:37:03;;;;;;;11.50;1.25;;;9.60;99.90;;;;;;5164603;27;38836;-79
2024/04/15 16:39:46;;;;;;;;;;;;;;;;;;;;;
2024/04/15 16:42:27;;;;;;;4.63;1.03;;;9.60;99.90;;;;;;5194248;27;39582;-79
2024/04/15 16:44:53;;;;;;;8.68;1.23;;;9.50;99.90;;;;;;5182704;27;38133;-78
2024/04/15 16:47:20;;;;;;;6.27;1.37;;;9.50;99.90;;;;;;5205309;27;38646;-78
2024/04/15 16:49:51;;;;;;;7.03;1.20;;;9.30;99.90;;;;;;5173856;27;39478;-77
2024/04/15 16:52:17;;;;;;;8.57;1.27;;;9.20;1.00;;;;;;5143319;27;36402;-79
2024/04/15 16:54:43;;;;;;;5.73;1.20;;;9.10;1.00;;;;;;5155775;27;38424;-78
2024/04/15 16:57:10;;;;;;;7.03;1.30;;;9.00;1.00;;;;;;5150879;27;37159;-78
2024/04/15 16:59:36;;;;;;;9.73;1.77;;;9.00;1.00;;;;;;5149465;27;38851;-78
2024/04/15 17:02:02;;;;;;;10.57;1.23;;;8.90;1.00;;;;;;5159832;27;37418;-78
2024/04/15 17:04:28;;;;;;;3.97;1.00;;;9.00;1.00;;;;;;5181370;27;38056;-78
2024/04/15 17:06:56;;;;;;;9.07;1.80;;;9.00;1.00;;;;;;5160746;27;38358;-78
2024/04/15 17:09:22;;;;;;;7.80;1.50;;;9.10;1.00;;;;;;5159785;27;39034;-79
2024/04/15 17:11:50;;;;;;;6.87;1.30;;;9.10;1.00;;;;;;5163365;27;37135;-78
2024/04/15 17:14:16;;;;;;;7.43;1.67;;;9.10;1.00;;;;;;5161394;27;37753;-77
2024/04/15 17:16:43;;;;;;;9.37;1.30;;;9.10;1.00;;;;;;5165251;27;37199;-78
2024/04/15 17:19:10;;;;;;;7.53;1.53;;;9.10;1.00;;;;;;5162581;27;36821;-78
2024/04/15 17:21:36;;;;;;;10.50;1.60;;;9.10;1.00;;;;;;5180940;27;37966;-78
2024/04/15 17:24:03;;;;;;;9.67;1.47;;;9.10;1.00;;;;;;5188043;27;37768;-79
2024/04/15 17:26:30;;;;;;;4.63;1.67;;;9.10;1.00;;;;;;5189408;27;46801;-79
2024/04/15 17:28:56;;;;;;;9.53;1.57;;;9.10;1.00;;;;;;5171529;27;37080;-79
2024/04/15 17:31:26;;;;;;;18.43;2.33;;;9.10;1.00;;;;;;5172694;27;38030;-79
2024/04/15 17:33:52;;;;;;;11.37;1.87;;;8.90;1.00;;;;;;5167887;27;38592;-77
2024/04/15 17:36:18;;;;;;;4.57;0.80;;;8.80;1.00;;;;;;5165501;27;38274;-77
2024/04/15 17:38:44;;;;;;;5.10;0.70;;;8.70;1.00;;;;;;5156621;27;37099;-76
2024/04/15 17:41:11;;;;;;;3.50;0.87;;;8.60;1.00;;;;;;5154327;27;36156;-76
2024/04/15 17:43:37;;;;;;;3.70;0.50;;;8.50;1.00;;;;;;5163943;27;37117;-79
2024/04/15 17:46:03;;;;;;;3.50;0.50;;;8.40;1.00;;;;;;5161249;27;38893;-76
2024/04/15 17:48:29;;;;;;;2.70;0.60;;;8.40;1.00;;;;;;5156313;27;38270;-77
2024/04/15 17:50:55;;;;;;;5.77;0.70;;;8.30;1.00;;;;;;5159052;27;36109;-76
2024/04/15 17:53:23;;;;;;;3.17;0.77;;;8.30;1.00;;;;;;5169810;27;37417;-77
2024/04/15 17:55:49;;;;;;;5.17;1.10;;;8.20;1.00;;;;;;5162316;27;37206;-76
2024/04/15 17:58:15;;;;;;;5.00;0.80;;;8.20;1.00;;;;;;5160556;27;37802;-78
2024/04/15 18:00:41;;;;;;;5.50;1.10;;;8.20;1.00;;;;;;5157832;27;35870;-77
2024/04/15 18:03:07;;;;;;;6.63;1.17;;;8.20;1.00;;;;;;5158663;27;39872;-76
2024/04/15 18:05:34;;;;;;;7.50;1.03;;;8.20;1.00;;;;;;5159874;27;37136;-76
2024/04/15 18:08:01;;;;;;;5.90;1.20;;;8.20;1.00;;;;;;5155586;27;36914;-80
2024/04/15 18:10:28;;;;;;;7.37;1.30;;;8.20;1.00;;;;;;5168590;27;47764;-77
2024/04/15 18:13:03;;;;;;;9.87;1.17;;;8.20;1.00;;;;;;5183430;27;38623;-78
2024/04/15 18:15:51;;;;;;;10.00;1.30;;;8.30;1.00;;;;;;5159660;27;49480;-76
2024/04/15 18:18:17;;;;;;;10.27;1.83;;;8.30;1.00;;;;;;5152009;27;38298;-78
2024/04/15 18:20:44;;;;;;;8.43;1.30;;;8.40;1.00;;;;;;5184800;27;37710;-77
2024/04/15 18:23:13;;;;;;;9.50;1.50;;;8.40;1.00;;;;;;5209118;27;40664;-77
2024/04/15 18:25:40;;;;;;;15.27;1.83;;;8.50;1.00;;;;;;5185583;27;38982;-77
2024/04/15 18:28:08;;;;;;;10.20;1.83;;;8.50;1.00;;;;;;5184721;27;37064;-78
2024/04/15 18:30:34;;;;;;;7.33;1.57;;;8.60;1.00;;;;;;5185343;27;37720;-78
2024/04/15 18:33:00;;;;;;;9.83;1.63;;;8.60;1.00;;;;;;5182759;27;38830;-77
2024/04/15 18:35:26;;;;;;;17.47;2.03;;;8.70;1.00;;;;;;5184450;27;38916;-77
2024/04/15 18:37:53;;;;;;;13.00;2.27;;;8.80;1.00;;;;;;5182537;27;36808;-76
2024/04/15 18:40:19;;;;;;;18.13;2.50;;;8.80;1.00;;;;;;5181550;27;36002;-76
2024/04/15 18:42:45;;;;;;;13.27;1.80;;;8.80;1.00;;;;;;5185096;27;37519;-77
2024/04/15 18:45:11;;;;;;;9.33;1.83;;;8.80;1.00;;;;;;5182473;27;37572;-77
2024/04/15 18:47:38;;;;;;;14.00;2.10;;;8.80;1.00;;;;;;5185625;27;38931;-75
2024/04/15 18:50:04;;;;;;;11.57;2.13;;;8.80;1.00;;;;;;5184953;27;37806;-77
2024/04/15 18:52:31;;;;;;;13.47;2.00;;;8.70;1.00;;;;;;5185606;27;37440;-77
2024/04/15 18:54:57;;;;;;;10.80;2.07;;;8.70;1.00;;;;;;5179420;27;37307;-78
2024/04/15 18:57:24;;;;;;;10.47;1.77;;;8.70;1.00;;;;;;5180548;27;39053;-78
2024/04/15 18:59:50;;;;;;;17.13;2.07;;;8.70;1.00;;;;;;5182074;27;36032;-77
2024/04/15 19:02:16;;;;;;;17.37;2.57;;;8.70;1.00;;;;;;5182525;27;39950;-77
2024/04/15 19:04:45;;;;;;;16.70;2.13;;;8.70;1.00;;;;;;5185700;27;37290;-77
2024/04/15 19:07:18;;;;;;;12.33;2.10;;;8.80;1.00;;;;;;5192362;27;36229;-78
2024/04/15 19:09:44;;;;;;;11.80;1.90;;;8.80;1.00;;;;;;5177336;27;37396;-78
2024/04/15 19:12:10;;;;;;;9.70;1.90;;;8.80;1.00;;;;;;5165266;27;37743;-77
2024/04/15 19:14:38;;;;;;;13.53;2.13;;;8.90;1.00;;;;;;5168830;27;37312;-79
2024/04/15 19:17:04;;;;;;;13.63;1.77;;;9.00;1.00;;;;;;5167843;27;37422;-77
2024/04/15 19:19:31;;;;;;;11.57;1.97;;;9.00;1.00;;;;;;5171871;27;37268;-78
2024/04/15 19:21:57;;;;;;;10.07;1.80;;;8.90;1.00;;;;;;5173278;27;36225;-78
2024/04/15 19:24:23;;;;;;;9.80;2.13;;;9.00;1.00;;;;;;5167701;27;38848;-78
2024/04/15 19:26:50;;;;;;;10.20;1.83;;;8.90;1.00;;;;;;5167877;27;38332;-78
2024/04/15 19:29:16;;;;;;;13.67;3.00;;;8.90;1.00;;;;;;5167555;27;36285;-79
2024/04/15 19:31:45;;;;;;;8.70;1.67;;;8.90;1.00;;;;;;5186194;27;37861;-78
2024/04/15 19:34:12;;;;;;;11.87;1.77;;;8.90;1.00;;;;;;5179500;27;37722;-79
2024/04/15 19:36:38;;;;;;;14.43;2.40;;;8.90;1.00;;;;;;5186024;27;37329;-79
2024/04/15 19:39:07;;;;;;;17.90;2.40;;;8.90;1.00;;;;;;5179860;27;35991;-79
2024/04/15 19:41:37;;;;;;;14.40;2.57;;;8.90;1.00;;;;;;5184400;27;39338;-79
2024/04/15 19:44:06;;;;;;;10.40;2.07;;;8.90;1.00;;;;;;5211659;27;37417;-78
2024/04/15 19:46:35;;;;;;;9.90;2.30;;;9.00;1.00;;;;;;5187846;27;39654;-78
2024/04/15 19:49:02;;;;;;;9.87;2.23;;;9.00;1.00;;;;;;5184491;27;35934;-78
2024/04/15 19:51:28;;;;;;;12.97;2.00;;;9.00;1.00;;;;;;5187706;27;37826;-79
2024/04/15 19:53:54;;;;;;;14.63;1.93;;;8.90;1.00;;;;;;5187658;27;38137;-78
2024/04/15 19:56:21;;;;;;;14.83;2.60;;;8.90;1.00;;;;;;5211847;27;38130;-78
2024/04/15 19:58:48;;;;;;;14.13;1.90;;;8.90;1.00;;;;;;5181008;27;36142;-78
2024/04/15 20:01:14;;;;;;;13.77;2.53;;;8.80;1.00;;;;;;5182522;27;38344;-79
2024/04/15 20:03:40;;;;;;;15.23;2.73;;;8.80;1.00;;;;;;5187178;27;37521;-78
2024/04/15 20:06:07;;;;;;;14.93;2.63;;;8.90;1.00;;;;;;5184376;27;38868;-78
2024/04/15 20:08:36;;;;;;;18.77;2.70;;;8.90;1.00;;;;;;5188369;27;37537;-79
2024/04/15 20:11:13;;;;;;;14.20;3.13;;;9.00;1.00;;;;;;5175191;27;38255;-77
2024/04/15 20:13:39;;;;;;;14.27;2.07;;;9.00;1.00;;;;;;5193443;27;37200;-77